Etusivu
METAR-TAF:

METAR-TAF

Lentoasemat :

San Marcos Municipal Airport

San Marcos, Texas, Yhdysvallat

Leveyspiiri: 29-53-37N, Pituuspiiri: 097-51-53W, korkeus merenpinnasta: 182 m

Tämänhetkinen sää

Tämä raportti tehtiin 9 minuuttia sitten, kello 22.56 UTC
Tuuli 19 kn etelästä/kaakosta puuskistuen 24 kn:hen
Lämpötila 33°C
Kosteus 56%
Ilmanpaine 1006 hPa
Näkyvyys: 16.1 km
selkeää

METAR: KHYI 232256Z 15019G24KT 10SM CLR 33/23 A2971 RMK AO2 SLP052 T03280233

Aika: 18:05 (23:05 UTC)


TAF: puuttuu

Säähavainnot ja -ennusteet yli 4000 lentoasemalta (METAR- ja TAF-raportit).

Käytössä olevat sääasemat on merkitty karttaan keltaisilla ja punaisilla pisteillä.

Aseta hiiri pisteen päälle nähdäksesi sääaseman nimen.

Klikkaa sitten nähdäksesi säähavainnot ja -ennusteet.

Kartan vaihtaminen: klikkaa mustalla rastilla varustettuja vihreitä pisteitä, niin voit zoomata sisään; viivalla varustettua vihreää pistettä, niin voit zoomata ulos tai vihreitä nuolia, niin pääset viereisille kartoille.


METAR-TAF: